Disclaimer

Please do not use the information listed here in-flight or in-navigation, as they are not provided to us by the airports but are provided by volunteers, so they might be outdated.

Search


Regions


Airport information page

Radio informations:
Tower (TWR) - 118.65 MHz
Ground (GND) - 126.175 MHz
Automatic Terminal Information Service (ATIS) - 119.075 MHz

Airport informations:
Latitude: 59° 11' 12.13" N
Longitude: 010° 15' 31.06" E
Elevation: 286 feet - 87 meters
Operating hours: Remarks
Operating agency: Civil government, landing fees and diplomatic clearance may be required
Timezone: UTC+1(+2DT) - Last Sunday in March to last Sunday in October
Fuel: Jet A1, without icing nhibitor.

JP-8, SemiKeroscene MIL Spec T-83133, without icing inhibitor

Jet fuel avaiable but type is unknown.

100/130 MIL Spec, low lead, aviation gasoline (BLUE)

Runway information:
18/36 - 9675 x 148 feet< - >2949 x 45 meters

Recent METARs:
ENTO 181950Z 01008KT 9999 OVC015 02/02 Q1040
ENTO 182020Z 02009KT 9999 OVC013 02/02 Q1040
ENTO 182050Z 03007KT 9999 OVC012 03/02 Q1040

Airport on the map: